Congonhas Airport

SBSP · São Paulo, 巴西

METAR的历史 SBSP · 孔戈尼亚斯/圣保罗机场

下面你可以看到过去几天的METARs。 选择年份以浏览从2007年开始的旧METAR。

2024年3月4日

时间 代码 天气 温度 能见度 天花板 METAR/SPECI
16:00
V
27 °C 10 km+ - 150° 150° 13 kt METAR SBSP 041900Z 15013KT CAVOK 27/21 Q1015
15:00
V
29 °C 10 km+ - 180° 180° 8 kt METAR SBSP 041800Z 18008KT 140V220 CAVOK 29/21 Q1015
14:00
V
31 °C 10 km+ - 280° 280° 7 kt METAR SBSP 041700Z 28007KT 200V360 9999 SCT040 31/17 Q1015
13:00
V
31 °C 10 km+ - 350° 350° 8 kt METAR SBSP 041600Z 35008KT 260V040 CAVOK 31/18 Q1016
12:00
V
29 °C 10 km+ - 310° 310° 9 kt METAR SBSP 041500Z 31009KT 250V340 9999 SCT043 29/18 Q1017
11:00
V
29 °C 10 km+ - 030° 030° 5 kt METAR SBSP 041400Z 03005KT 330V100 CAVOK 29/18 Q1017
10:00
V
27 °C 10 km+ - 340° 340° 8 kt METAR SBSP 041300Z 34008KT 310V010 CAVOK 27/18 Q1018
09:00
V
25 °C 10 km+ - 020° 020° 4 kt METAR SBSP 041200Z 02004KT 360V060 CAVOK 25/18 Q1018
08:00
V
24 °C 10 km+ - 080° 080° 4 kt METAR SBSP 041100Z 08004KT 030V120 CAVOK 24/18 Q1018
07:00
V
22 °C 10 km+ - 050° 050° 4 kt METAR SBSP 041000Z 05004KT 010V100 CAVOK 22/18 Q1017
06:00
V
21 °C 10 km+ - 120° 120° 4 kt METAR SBSP 040900Z 12004KT 100V160 CAVOK 21/18 Q1016
05:00
V
22 °C 10 km+ - 090° 090° 4 kt METAR SBSP 040800Z AUTO 09004KT 030V120 CAVOK 22/18 Q1016
04:00
V
22 °C 10 km+ - 080° 080° 4 kt METAR SBSP 040700Z AUTO 08004KT 050V120 CAVOK 22/18 Q1016
03:00
V
22 °C 10 km+ - 060° 060° 6 kt METAR SBSP 040600Z AUTO 06006KT 030V090 CAVOK 22/18 Q1015
02:00
V
23 °C 10 km+ - 060° 060° 4 kt METAR SBSP 040500Z AUTO 06004KT 030V090 CAVOK 23/18 Q1016
01:00
V
23 °C 10 km+ - 070° 070° 3 kt METAR SBSP 040400Z AUTO 07003KT 030V100 CAVOK 23/18 Q1016
00:00
V
23 °C 10 km+ - 100° 100° 3 kt METAR SBSP 040300Z AUTO 10003KT 050V130 CAVOK 23/19 Q1017

2024年3月3日

时间 代码 天气 温度 能见度 天花板 METAR/SPECI
23:10
V
23 °C 10 km+ - 130° 130° 3 kt METAR SBSP 040210Z 13003KT CAVOK 23/19 Q1018
23:00
V
22 °C 10 km+ - 160° 160° 3 kt METAR SBSP 040200Z 16003KT CAVOK 22/19 Q1018
22:00
V
22 °C 10 km+ - Var Var 2 kt METAR SBSP 040100Z VRB02KT CAVOK 22/20 Q1018
21:00
V
22 °C 10 km+ - 130° 130° 4 kt METAR SBSP 040000Z 13004KT 090V160 CAVOK 22/20 Q1017
20:00
V
22 °C 10 km+ - 140° 140° 6 kt METAR SBSP 032300Z 14006KT 9999 FEW011 SCT100 22/20 Q1017
19:00
M
23 °C 10 km+ 1.100 ft 190° 190° 7 kt METAR SBSP 032200Z 19007KT 9999 BKN011 BKN046 23/20 Q1017
18:00
M
23 °C 10 km+ 1.100 ft 170° 170° 13 kt METAR SBSP 032100Z 17013KT 9999 BKN011 BKN046 23/20 Q1016
17:33
M
24 °C 10 km+ 1.100 ft 180° 180° 10 kt METAR SBSP 032033Z 18010KT 9999 BKN011 BKN046 24/20 Q1016
17:00
V
26 °C 10 km+ 4.600 ft 200° 200° 11 kt METAR SBSP 032000Z 20011KT 9999 BKN046 26/20 Q1015
16:00
V
28 °C 10 km+ 4.600 ft 180° 180° 12 kt METAR SBSP 031900Z 18012KT 9999 BKN046 28/20 Q1015
15:00
V
30 °C 10 km+ 4.000 ft 170° 170° 10 kt METAR SBSP 031800Z 17010KT 130V190 9999 BKN040 30/19 Q1015
14:00
V
31 °C 10 km+ 4.000 ft 280° 280° 4 kt METAR SBSP 031700Z 28004KT 190V350 9999 BKN040 31/15 Q1015
13:00
V
30 °C 10 km+ - 020° 020° 5 kt METAR SBSP 031600Z 02005KT 310V080 9999 SCT040 30/16 Q1016
12:00
V
29 °C 10 km+ - Var Var 4 kt METAR SBSP 031500Z VRB04KT 9999 SCT030 29/18 Q1016
11:00
V
27 °C 10 km+ - 350° 350° 5 kt METAR SBSP 031400Z 35005KT 280V060 9999 FEW030 27/18 Q1017
10:00
V
25 °C 10 km+ - 030° 030° 6 kt METAR SBSP 031300Z 03006KT 350V060 CAVOK 25/18 Q1017
09:00
V
23 °C 10 km+ - 060° 060° 6 kt METAR SBSP 031200Z 06006KT 020V090 CAVOK 23/17 Q1018
08:00
V
22 °C 10 km+ - 070° 070° 6 kt METAR SBSP 031100Z 07006KT 030V110 CAVOK 22/17 Q1018
07:00
V
21 °C 10 km+ - 060° 060° 8 kt METAR SBSP 031000Z 06008KT CAVOK 21/17 Q1017
06:00
V
20 °C 10 km+ - 070° 070° 5 kt METAR SBSP 030900Z 07005KT 030V130 9999 FEW010 20/17 Q1017
05:00
V
20 °C 10 km+ - 060° 060° 8 kt METAR SBSP 030800Z AUTO 06008KT 030V110 9999 FEW010 20/17 Q1016
04:00
V
21 °C 10 km+ 4.400 ft 070° 070° 5 kt METAR SBSP 030700Z AUTO 07005KT 030V110 9999 FEW012 BKN044 21/18 Q1016
03:00
V
21 °C 10 km+ - 060° 060° 7 kt METAR SBSP 030600Z AUTO 06007KT 010V100 9999 FEW013/// SCT015/// 21/17 Q1016
02:00
M
21 °C 10 km+ 1.600 ft 090° 090° 4 kt METAR SBSP 030500Z AUTO 09004KT 050V120 9999 OVC016 21/17 Q1016
01:00
M
21 °C 10 km+ 1.500 ft 100° 100° 5 kt METAR SBSP 030400Z AUTO 10005KT 060V150 9999 SCT013 BKN015 21/17 Q1017
00:00
V
21 °C 10 km+ - 100° 100° 6 kt METAR SBSP 030300Z AUTO 10006KT 040V140 9999 FEW016 21/17 Q1018

2024年3月2日

时间 代码 天气 温度 能见度 天花板 METAR/SPECI
23:05
M
21 °C 10 km+ 2.500 ft 090° 090° 7 kt METAR SBSP 030205Z 09007KT 030V120 9999 FEW014 SCT016 BKN025 21/17 Q1018
23:00
M
21 °C 8 km 2.300 ft 100° 100° 7 kt METAR SBSP 030200Z 10007KT 050V120 8000 SCT014 BKN023 21/18 Q1018
22:00
M
21 °C 10 km+ 2.600 ft 120° 120° 7 kt METAR SBSP 030100Z 12007KT 9999 SCT014 BKN026 21/17 Q1019
21:00
V
21 °C 10 km+ - 140° 140° 7 kt METAR SBSP 030000Z 14007KT 9999 FEW014 SCT017 21/17 Q1018
20:00
M
21 °C 8 km 2.600 ft 150° 150° 12 kt METAR SBSP 022300Z 15012KT 8000 SCT015 BKN026 21/17 Q1018
19:00
M
21 °C 8 km 1.500 ft 140° 140° 10 kt METAR SBSP 022200Z 14010KT 110V170 8000 SCT013 BKN015 21/18 Q1017
18:00
V
22 °C 10 km+ - Var Var 13 kt METAR SBSP 022100Z VRB13KT 9999 SCT017 22/18 Q1016
17:00
V
24 °C 10 km+ - 150° 150° 13 kt METAR SBSP 022000Z 15013KT 9999 FEW023 24/18 Q1016
16:00
V
26 °C 10 km+ - 160° 160° 10 kt METAR SBSP 021900Z 16010KT 120V190 9999 FEW030 26/18 Q1016
15:00
V
27 °C 10 km+ - 170° 170° 9 kt METAR SBSP 021800Z 17009KT 120V210 9999 SCT036 27/17 Q1017
14:00
V
27 °C 10 km+ - 160° 160° 9 kt METAR SBSP 021700Z 16009KT 140V210 9999 SCT043 27/17 Q1017
13:00
V
27 °C 10 km+ - 150° 150° 8 kt METAR SBSP 021600Z 15008KT 100V180 9999 SCT040 27/16 Q1018
12:00
V
26 °C 10 km+ - 150° 150° 8 kt METAR SBSP 021500Z 15008KT 060V220 9999 SCT036 26/15 Q1019
11:00
V
24 °C 10 km+ - 160° 160° 8 kt METAR SBSP 021400Z 16008KT 120V200 9999 FEW030 SCT033 24/16 Q1019
10:00
M
24 °C 10 km+ 3.000 ft 150° 150° 5 kt METAR SBSP 021300Z 15005KT 9999 FEW026 BKN030 24/16 Q1020
09:00
V
23 °C 10 km+ - 130° 130° 8 kt METAR SBSP 021200Z 13008KT 100V170 9999 FEW018 SCT026 23/16 Q1019
08:00
M
22 °C 10 km+ 1.700 ft 130° 130° 7 kt METAR SBSP 021100Z 13007KT 9999 FEW015 BKN017 22/17 Q1019
07:00
M
20 °C 10 km+ 1.300 ft 130° 130° 7 kt METAR SBSP 021000Z 13007KT 9999 FEW011 BKN013 20/18 Q1018
06:32
M
20 °C 10 km+ 1.300 ft 120° 120° 7 kt METAR SBSP 020932Z 12007KT 9999 FEW009 BKN013 20/18 Q1018
06:00
M
20 °C 10 km+ 1.700 ft 110° 110° 6 kt METAR SBSP 020900Z 11006KT 090V150 9999 BKN017 20/18 Q1017
05:42
M
20 °C 10 km+ 1.100 ft 120° 120° 7 kt METAR SBSP 020842Z AUTO 12007KT 9999 BKN011 BKN014 20/18 Q1017
05:23
M
20 °C 10 km+ 1.200 ft 130° 130° 7 kt METAR SBSP 020823Z AUTO 13007KT 100V160 9999 SCT010 BKN012 20/18 Q1017
05:18
V
20 °C 10 km+ - 120° 120° 6 kt METAR SBSP 020818Z AUTO 12006KT 100V160 9999 FEW010 SCT012 20/17 Q1017
05:00
M
20 °C 10 km+ 1.200 ft 130° 130° 7 kt METAR SBSP 020800Z AUTO 13007KT 9999 SCT010 BKN012 20/17 Q1017
04:00
M
20 °C 10 km+ 1.200 ft 120° 120° 6 kt METAR SBSP 020700Z AUTO 12006KT 100V160 9999 SCT010 BKN012 20/18 Q1017
03:00
M
20 °C 10 km+ 1.100 ft 130° 130° 6 kt METAR SBSP 020600Z AUTO 13006KT 9999 BKN011 20/18 Q1017